sensor_id;sensor_type;location;lat;lon;timestamp;P1;durP1;ratioP1;P2;durP2;ratioP2
12165;SDS011;6146;48.128;11.476;2023-07-13T00:01:13;3.97;;;3.50;;
12165;SDS011;6146;48.128;11.476;2023-07-13T00:03:39;4.13;;;3.73;;
12165;SDS011;6146;48.128;11.476;2023-07-13T00:06:06;6.77;;;3.47;;
12165;SDS011;6146;48.128;11.476;2023-07-13T00:08:32;5.33;;;3.93;;
12165;SDS011;6146;48.128;11.476;2023-07-13T00:10:59;3.80;;;3.50;;
12165;SDS011;6146;48.128;11.476;2023-07-13T00:13:26;4.23;;;3.20;;
12165;SDS011;6146;48.128;11.476;2023-07-13T00:15:51;3.70;;;3.40;;
12165;SDS011;6146;48.128;11.476;2023-07-13T00:18:18;5.97;;;3.73;;
12165;SDS011;6146;48.128;11.476;2023-07-13T00:20:44;3.90;;;3.50;;
12165;SDS011;6146;48.128;11.476;2023-07-13T00:23:10;3.57;;;2.90;;
12165;SDS011;6146;48.128;11.476;2023-07-13T00:25:36;3.60;;;3.30;;
12165;SDS011;6146;48.128;11.476;2023-07-13T00:28:02;5.03;;;3.30;;
12165;SDS011;6146;48.128;11.476;2023-07-13T00:30:28;5.87;;;2.87;;
12165;SDS011;6146;48.128;11.476;2023-07-13T00:32:53;2.83;;;2.60;;
12165;SDS011;6146;48.128;11.476;2023-07-13T00:35:19;3.00;;;2.70;;
12165;SDS011;6146;48.128;11.476;2023-07-13T00:37:44;4.43;;;2.90;;
12165;SDS011;6146;48.128;11.476;2023-07-13T00:40:11;3.20;;;2.90;;
12165;SDS011;6146;48.128;11.476;2023-07-13T00:42:38;3.00;;;2.70;;
12165;SDS011;6146;48.128;11.476;2023-07-13T00:47:53;4.57;;;2.70;;
12165;SDS011;6146;48.128;11.476;2023-07-13T00:50:20;3.77;;;3.20;;
12165;SDS011;6146;48.128;11.476;2023-07-13T00:52:48;3.90;;;2.93;;
12165;SDS011;6146;48.128;11.476;2023-07-13T00:55:17;3.57;;;3.10;;
12165;SDS011;6146;48.128;11.476;2023-07-13T00:57:43;4.03;;;3.13;;
12165;SDS011;6146;48.128;11.476;2023-07-13T01:00:09;4.23;;;3.27;;
12165;SDS011;6146;48.128;11.476;2023-07-13T01:02:42;4.23;;;3.13;;
12165;SDS011;6146;48.128;11.476;2023-07-13T01:05:10;3.40;;;3.10;;
12165;SDS011;6146;48.128;11.476;2023-07-13T01:07:36;3.37;;;3.07;;
12165;SDS011;6146;48.128;11.476;2023-07-13T01:10:03;3.80;;;2.93;;
12165;SDS011;6146;48.128;11.476;2023-07-13T01:12:29;3.20;;;2.90;;
12165;SDS011;6146;48.128;11.476;2023-07-13T01:14:59;3.07;;;2.73;;
12165;SDS011;6146;48.128;11.476;2023-07-13T01:17:26;3.43;;;2.77;;
12165;SDS011;6146;48.128;11.476;2023-07-13T01:19:53;3.10;;;2.70;;
12165;SDS011;6146;48.128;11.476;2023-07-13T01:22:19;4.20;;;3.10;;
12165;SDS011;6146;48.128;11.476;2023-07-13T01:24:50;3.33;;;2.63;;
12165;SDS011;6146;48.128;11.476;2023-07-13T01:27:16;3.10;;;2.80;;
12165;SDS011;6146;48.128;11.476;2023-07-13T01:29:45;2.57;;;2.33;;
12165;SDS011;6146;48.128;11.476;2023-07-13T01:32:14;3.43;;;2.93;;
12165;SDS011;6146;48.128;11.476;2023-07-13T01:34:46;3.20;;;2.83;;
12165;SDS011;6146;48.128;11.476;2023-07-13T01:37:12;3.90;;;2.87;;
12165;SDS011;6146;48.128;11.476;2023-07-13T01:39:37;3.03;;;2.70;;
12165;SDS011;6146;48.128;11.476;2023-07-13T01:42:03;4.87;;;3.00;;
12165;SDS011;6146;48.128;11.476;2023-07-13T01:44:29;6.63;;;3.00;;
12165;SDS011;6146;48.128;11.476;2023-07-13T01:46:55;3.40;;;3.10;;
12165;SDS011;6146;48.128;11.476;2023-07-13T01:49:20;5.43;;;2.70;;
12165;SDS011;6146;48.128;11.476;2023-07-13T01:51:46;3.77;;;2.90;;
12165;SDS011;6146;48.128;11.476;2023-07-13T01:54:12;4.47;;;3.03;;
12165;SDS011;6146;48.128;11.476;2023-07-13T01:56:37;4.07;;;3.10;;
12165;SDS011;6146;48.128;11.476;2023-07-13T01:59:03;3.07;;;2.77;;
12165;SDS011;6146;48.128;11.476;2023-07-13T02:01:29;3.50;;;2.83;;
12165;SDS011;6146;48.128;11.476;2023-07-13T02:03:54;5.07;;;3.87;;
12165;SDS011;6146;48.128;11.476;2023-07-13T02:06:20;3.33;;;3.03;;
12165;SDS011;6146;48.128;11.476;2023-07-13T02:08:45;5.40;;;3.07;;
12165;SDS011;6146;48.128;11.476;2023-07-13T02:11:11;4.93;;;3.13;;
12165;SDS011;6146;48.128;11.476;2023-07-13T02:13:37;6.57;;;3.53;;
12165;SDS011;6146;48.128;11.476;2023-07-13T02:16:02;4.80;;;3.47;;
12165;SDS011;6146;48.128;11.476;2023-07-13T02:18:28;3.90;;;3.50;;
12165;SDS011;6146;48.128;11.476;2023-07-13T02:20:53;4.47;;;3.20;;
12165;SDS011;6146;48.128;11.476;2023-07-13T02:23:19;3.50;;;3.20;;
12165;SDS011;6146;48.128;11.476;2023-07-13T02:25:45;4.57;;;3.40;;
12165;SDS011;6146;48.128;11.476;2023-07-13T02:28:10;4.60;;;3.57;;
12165;SDS011;6146;48.128;11.476;2023-07-13T02:30:36;7.40;;;3.73;;
12165;SDS011;6146;48.128;11.476;2023-07-13T02:33:03;5.80;;;3.57;;
12165;SDS011;6146;48.128;11.476;2023-07-13T02:35:29;6.00;;;3.53;;
12165;SDS011;6146;48.128;11.476;2023-07-13T02:37:54;5.63;;;3.60;;
12165;SDS011;6146;48.128;11.476;2023-07-13T02:40:20;6.87;;;3.80;;
12165;SDS011;6146;48.128;11.476;2023-07-13T02:42:45;4.23;;;3.83;;
12165;SDS011;6146;48.128;11.476;2023-07-13T02:45:11;4.57;;;3.77;;
12165;SDS011;6146;48.128;11.476;2023-07-13T02:47:39;6.40;;;4.17;;
12165;SDS011;6146;48.128;11.476;2023-07-13T02:50:06;4.93;;;3.60;;
12165;SDS011;6146;48.128;11.476;2023-07-13T02:52:32;6.37;;;4.00;;
12165;SDS011;6146;48.128;11.476;2023-07-13T02:54:58;5.57;;;4.07;;
12165;SDS011;6146;48.128;11.476;2023-07-13T02:57:24;5.60;;;4.07;;
12165;SDS011;6146;48.128;11.476;2023-07-13T02:59:49;4.60;;;4.20;;
12165;SDS011;6146;48.128;11.476;2023-07-13T03:02:15;4.97;;;4.47;;
12165;SDS011;6146;48.128;11.476;2023-07-13T03:04:41;5.23;;;3.87;;
12165;SDS011;6146;48.128;11.476;2023-07-13T03:07:06;5.93;;;3.87;;
12165;SDS011;6146;48.128;11.476;2023-07-13T03:09:33;5.00;;;4.03;;
12165;SDS011;6146;48.128;11.476;2023-07-13T03:11:59;5.43;;;4.03;;
12165;SDS011;6146;48.128;11.476;2023-07-13T03:14:25;5.47;;;3.50;;
12165;SDS011;6146;48.128;11.476;2023-07-13T03:16:51;4.23;;;3.60;;
12165;SDS011;6146;48.128;11.476;2023-07-13T03:19:17;4.23;;;3.73;;
12165;SDS011;6146;48.128;11.476;2023-07-13T03:21:43;3.53;;;3.23;;
12165;SDS011;6146;48.128;11.476;2023-07-13T03:24:08;4.00;;;2.90;;
12165;SDS011;6146;48.128;11.476;2023-07-13T03:26:34;3.43;;;3.13;;
12165;SDS011;6146;48.128;11.476;2023-07-13T03:29:00;4.63;;;3.40;;
12165;SDS011;6146;48.128;11.476;2023-07-13T03:31:26;5.47;;;3.37;;
12165;SDS011;6146;48.128;11.476;2023-07-13T03:33:54;4.80;;;3.20;;
12165;SDS011;6146;48.128;11.476;2023-07-13T03:36:22;6.13;;;3.60;;
12165;SDS011;6146;48.128;11.476;2023-07-13T03:38:50;6.37;;;4.00;;
12165;SDS011;6146;48.128;11.476;2023-07-13T03:41:19;5.23;;;3.53;;
12165;SDS011;6146;48.128;11.476;2023-07-13T03:43:44;5.57;;;3.50;;
12165;SDS011;6146;48.128;11.476;2023-07-13T03:46:12;3.17;;;2.87;;
12165;SDS011;6146;48.128;11.476;2023-07-13T03:48:38;3.70;;;3.20;;
12165;SDS011;6146;48.128;11.476;2023-07-13T03:51:05;4.77;;;3.33;;
12165;SDS011;6146;48.128;11.476;2023-07-13T03:53:31;6.53;;;3.53;;
12165;SDS011;6146;48.128;11.476;2023-07-13T03:55:56;5.17;;;3.70;;
12165;SDS011;6146;48.128;11.476;2023-07-13T03:58:23;3.70;;;3.20;;
12165;SDS011;6146;48.128;11.476;2023-07-13T04:00:51;4.93;;;3.53;;
12165;SDS011;6146;48.128;11.476;2023-07-13T04:03:17;4.10;;;3.00;;
12165;SDS011;6146;48.128;11.476;2023-07-13T04:05:42;4.50;;;3.73;;
12165;SDS011;6146;48.128;11.476;2023-07-13T04:08:08;5.27;;;4.13;;
12165;SDS011;6146;48.128;11.476;2023-07-13T04:10:34;5.23;;;3.60;;
12165;SDS011;6146;48.128;11.476;2023-07-13T04:12:59;4.27;;;3.80;;
12165;SDS011;6146;48.128;11.476;2023-07-13T04:15:25;3.70;;;3.40;;
12165;SDS011;6146;48.128;11.476;2023-07-13T04:17:54;5.27;;;3.60;;
12165;SDS011;6146;48.128;11.476;2023-07-13T04:20:19;3.70;;;3.40;;
12165;SDS011;6146;48.128;11.476;2023-07-13T04:22:45;4.33;;;3.60;;
12165;SDS011;6146;48.128;11.476;2023-07-13T04:25:11;6.03;;;3.77;;
12165;SDS011;6146;48.128;11.476;2023-07-13T04:27:36;4.63;;;3.60;;
12165;SDS011;6146;48.128;11.476;2023-07-13T04:30:04;4.23;;;3.70;;
12165;SDS011;6146;48.128;11.476;2023-07-13T04:32:31;5.87;;;3.50;;
12165;SDS011;6146;48.128;11.476;2023-07-13T04:34:57;6.10;;;3.83;;
12165;SDS011;6146;48.128;11.476;2023-07-13T04:37:24;4.57;;;3.27;;
12165;SDS011;6146;48.128;11.476;2023-07-13T04:39:51;4.80;;;3.40;;
12165;SDS011;6146;48.128;11.476;2023-07-13T04:42:16;3.23;;;2.80;;
12165;SDS011;6146;48.128;11.476;2023-07-13T04:44:47;6.50;;;3.67;;
12165;SDS011;6146;48.128;11.476;2023-07-13T04:47:16;4.63;;;3.50;;
12165;SDS011;6146;48.128;11.476;2023-07-13T04:49:42;6.77;;;3.70;;
12165;SDS011;6146;48.128;11.476;2023-07-13T04:52:09;4.93;;;3.60;;
12165;SDS011;6146;48.128;11.476;2023-07-13T04:54:34;5.27;;;3.43;;
12165;SDS011;6146;48.128;11.476;2023-07-13T04:57:00;4.67;;;3.10;;
12165;SDS011;6146;48.128;11.476;2023-07-13T04:59:26;4.50;;;3.37;;
12165;SDS011;6146;48.128;11.476;2023-07-13T05:01:51;5.33;;;3.27;;
12165;SDS011;6146;48.128;11.476;2023-07-13T05:04:17;2.90;;;2.70;;
12165;SDS011;6146;48.128;11.476;2023-07-13T05:06:43;3.17;;;2.87;;
12165;SDS011;6146;48.128;11.476;2023-07-13T05:09:09;3.23;;;2.93;;
12165;SDS011;6146;48.128;11.476;2023-07-13T05:11:34;6.03;;;3.50;;
12165;SDS011;6146;48.128;11.476;2023-07-13T05:14:00;4.67;;;3.30;;
12165;SDS011;6146;48.128;11.476;2023-07-13T05:16:26;3.80;;;3.30;;
12165;SDS011;6146;48.128;11.476;2023-07-13T05:18:52;3.77;;;2.90;;
12165;SDS011;6146;48.128;11.476;2023-07-13T05:21:18;5.07;;;3.17;;
12165;SDS011;6146;48.128;11.476;2023-07-13T05:23:44;3.20;;;2.90;;
12165;SDS011;6146;48.128;11.476;2023-07-13T05:26:10;4.67;;;2.70;;
12165;SDS011;6146;48.128;11.476;2023-07-13T05:28:36;4.77;;;3.17;;
12165;SDS011;6146;48.128;11.476;2023-07-13T05:31:02;4.47;;;3.00;;
12165;SDS011;6146;48.128;11.476;2023-07-13T05:33:27;3.67;;;2.60;;
12165;SDS011;6146;48.128;11.476;2023-07-13T05:35:53;4.00;;;3.10;;
12165;SDS011;6146;48.128;11.476;2023-07-13T05:38:19;4.37;;;3.13;;
12165;SDS011;6146;48.128;11.476;2023-07-13T05:40:45;5.10;;;3.23;;
12165;SDS011;6146;48.128;11.476;2023-07-13T05:43:12;4.40;;;2.90;;
12165;SDS011;6146;48.128;11.476;2023-07-13T05:45:38;5.13;;;2.80;;
12165;SDS011;6146;48.128;11.476;2023-07-13T05:48:04;4.17;;;3.50;;
12165;SDS011;6146;48.128;11.476;2023-07-13T05:50:30;4.90;;;3.40;;
12165;SDS011;6146;48.128;11.476;2023-07-13T05:52:56;4.10;;;3.53;;
12165;SDS011;6146;48.128;11.476;2023-07-13T05:55:22;4.63;;;3.20;;
12165;SDS011;6146;48.128;11.476;2023-07-13T05:57:47;3.93;;;3.23;;
12165;SDS011;6146;48.128;11.476;2023-07-13T06:00:13;6.40;;;3.20;;
12165;SDS011;6146;48.128;11.476;2023-07-13T06:02:39;4.63;;;3.33;;
12165;SDS011;6146;48.128;11.476;2023-07-13T06:05:05;3.87;;;3.03;;
12165;SDS011;6146;48.128;11.476;2023-07-13T06:07:31;4.47;;;3.07;;
12165;SDS011;6146;48.128;11.476;2023-07-13T06:09:56;3.87;;;2.90;;
12165;SDS011;6146;48.128;11.476;2023-07-13T06:12:24;3.83;;;2.80;;
12165;SDS011;6146;48.128;11.476;2023-07-13T06:14:50;5.07;;;3.30;;
12165;SDS011;6146;48.128;11.476;2023-07-13T06:17:15;3.30;;;2.80;;
12165;SDS011;6146;48.128;11.476;2023-07-13T06:19:41;4.50;;;2.90;;
12165;SDS011;6146;48.128;11.476;2023-07-13T06:22:06;5.10;;;3.17;;
12165;SDS011;6146;48.128;11.476;2023-07-13T06:24:32;5.23;;;3.17;;
12165;SDS011;6146;48.128;11.476;2023-07-13T06:26:57;3.67;;;2.70;;
12165;SDS011;6146;48.128;11.476;2023-07-13T06:29:23;3.03;;;2.73;;
12165;SDS011;6146;48.128;11.476;2023-07-13T06:31:48;3.93;;;3.00;;
12165;SDS011;6146;48.128;11.476;2023-07-13T06:34:14;3.23;;;2.30;;
12165;SDS011;6146;48.128;11.476;2023-07-13T06:36:39;2.57;;;2.37;;
12165;SDS011;6146;48.128;11.476;2023-07-13T06:39:06;3.13;;;2.57;;
12165;SDS011;6146;48.128;11.476;2023-07-13T06:41:31;4.70;;;2.63;;
12165;SDS011;6146;48.128;11.476;2023-07-13T06:43:58;3.13;;;2.63;;
12165;SDS011;6146;48.128;11.476;2023-07-13T06:46:24;3.33;;;2.70;;
12165;SDS011;6146;48.128;11.476;2023-07-13T06:48:49;3.73;;;2.50;;
12165;SDS011;6146;48.128;11.476;2023-07-13T06:51:15;3.10;;;2.63;;
12165;SDS011;6146;48.128;11.476;2023-07-13T06:53:41;3.93;;;2.70;;
12165;SDS011;6146;48.128;11.476;2023-07-13T06:56:08;4.20;;;2.87;;
12165;SDS011;6146;48.128;11.476;2023-07-13T06:58:35;4.50;;;3.03;;
12165;SDS011;6146;48.128;11.476;2023-07-13T07:01:01;4.40;;;2.33;;
12165;SDS011;6146;48.128;11.476;2023-07-13T07:03:27;4.13;;;2.80;;
12165;SDS011;6146;48.128;11.476;2023-07-13T07:05:52;4.43;;;2.83;;
12165;SDS011;6146;48.128;11.476;2023-07-13T07:08:18;4.37;;;2.63;;
12165;SDS011;6146;48.128;11.476;2023-07-13T07:10:43;4.80;;;2.83;;
12165;SDS011;6146;48.128;11.476;2023-07-13T07:13:10;4.80;;;2.50;;
12165;SDS011;6146;48.128;11.476;2023-07-13T07:15:35;3.40;;;2.50;;
12165;SDS011;6146;48.128;11.476;2023-07-13T07:18:01;4.93;;;2.80;;
12165;SDS011;6146;48.128;11.476;2023-07-13T07:20:27;3.60;;;2.87;;
12165;SDS011;6146;48.128;11.476;2023-07-13T07:22:52;4.63;;;2.80;;
12165;SDS011;6146;48.128;11.476;2023-07-13T07:25:18;4.37;;;3.00;;
12165;SDS011;6146;48.128;11.476;2023-07-13T07:27:44;3.80;;;3.10;;
12165;SDS011;6146;48.128;11.476;2023-07-13T07:30:10;3.63;;;2.97;;
12165;SDS011;6146;48.128;11.476;2023-07-13T07:32:36;3.60;;;2.50;;
12165;SDS011;6146;48.128;11.476;2023-07-13T07:35:02;4.43;;;2.83;;
12165;SDS011;6146;48.128;11.476;2023-07-13T07:37:28;2.90;;;2.70;;
12165;SDS011;6146;48.128;11.476;2023-07-13T07:39:53;3.17;;;2.63;;
12165;SDS011;6146;48.128;11.476;2023-07-13T07:42:19;2.83;;;2.50;;
12165;SDS011;6146;48.128;11.476;2023-07-13T07:44:45;6.57;;;3.03;;
12165;SDS011;6146;48.128;11.476;2023-07-13T07:47:10;4.03;;;2.60;;
12165;SDS011;6146;48.128;11.476;2023-07-13T07:49:36;6.00;;;2.77;;
12165;SDS011;6146;48.128;11.476;2023-07-13T07:52:03;4.83;;;3.03;;
12165;SDS011;6146;48.128;11.476;2023-07-13T07:54:29;3.70;;;2.50;;
12165;SDS011;6146;48.128;11.476;2023-07-13T07:56:54;3.53;;;2.97;;
12165;SDS011;6146;48.128;11.476;2023-07-13T07:59:20;4.27;;;2.87;;
12165;SDS011;6146;48.128;11.476;2023-07-13T08:01:45;3.20;;;2.80;;
12165;SDS011;6146;48.128;11.476;2023-07-13T08:04:13;3.90;;;2.97;;
12165;SDS011;6146;48.128;11.476;2023-07-13T08:06:38;2.90;;;2.70;;
12165;SDS011;6146;48.128;11.476;2023-07-13T08:09:04;5.00;;;2.90;;
12165;SDS011;6146;48.128;11.476;2023-07-13T08:11:29;3.10;;;2.50;;
12165;SDS011;6146;48.128;11.476;2023-07-13T08:13:55;3.83;;;3.13;;
12165;SDS011;6146;48.128;11.476;2023-07-13T08:16:21;3.63;;;2.90;;
12165;SDS011;6146;48.128;11.476;2023-07-13T08:18:48;3.90;;;3.13;;
12165;SDS011;6146;48.128;11.476;2023-07-13T08:21:14;3.37;;;3.07;;
12165;SDS011;6146;48.128;11.476;2023-07-13T08:23:39;5.13;;;3.07;;
12165;SDS011;6146;48.128;11.476;2023-07-13T08:26:05;3.17;;;2.80;;
12165;SDS011;6146;48.128;11.476;2023-07-13T08:28:31;4.00;;;3.20;;
12165;SDS011;6146;48.128;11.476;2023-07-13T08:31:02;3.73;;;3.20;;
12165;SDS011;6146;48.128;11.476;2023-07-13T08:33:28;6.67;;;3.20;;
12165;SDS011;6146;48.128;11.476;2023-07-13T08:35:54;4.47;;;2.90;;
12165;SDS011;6146;48.128;11.476;2023-07-13T08:38:20;6.17;;;2.97;;
12165;SDS011;6146;48.128;11.476;2023-07-13T08:40:53;5.50;;;2.80;;
12165;SDS011;6146;48.128;11.476;2023-07-13T08:43:23;3.03;;;2.70;;
12165;SDS011;6146;48.128;11.476;2023-07-13T08:53:59;3.60;;;2.27;;
12165;SDS011;6146;48.128;11.476;2023-07-13T08:56:29;3.30;;;2.50;;
12165;SDS011;6146;48.128;11.476;2023-07-13T08:58:56;3.50;;;2.17;;
12165;SDS011;6146;48.128;11.476;2023-07-13T09:01:33;2.57;;;2.23;;
12165;SDS011;6146;48.128;11.476;2023-07-13T09:04:21;3.83;;;2.23;;
12165;SDS011;6146;48.128;11.476;2023-07-13T09:06:57;2.40;;;2.20;;
12165;SDS011;6146;48.128;11.476;2023-07-13T09:09:59;3.50;;;2.17;;
12165;SDS011;6146;48.128;11.476;2023-07-13T09:15:40;3.87;;;2.40;;
12165;SDS011;6146;48.128;11.476;2023-07-13T09:23:54;3.67;;;2.33;;
12165;SDS011;6146;48.128;11.476;2023-07-13T09:26:41;2.70;;;1.97;;
12165;SDS011;6146;48.128;11.476;2023-07-13T09:31:54;3.17;;;2.30;;
12165;SDS011;6146;48.128;11.476;2023-07-13T09:34:25;3.17;;;2.50;;
12165;SDS011;6146;48.128;11.476;2023-07-13T09:36:51;3.37;;;2.27;;
12165;SDS011;6146;48.128;11.476;2023-07-13T09:44:51;3.60;;;2.20;;
12165;SDS011;6146;48.128;11.476;2023-07-13T09:47:22;2.93;;;2.10;;
12165;SDS011;6146;48.128;11.476;2023-07-13T09:49:56;3.90;;;2.23;;
12165;SDS011;6146;48.128;11.476;2023-07-13T09:52:23;4.77;;;2.20;;
12165;SDS011;6146;48.128;11.476;2023-07-13T09:54:51;6.07;;;2.20;;
12165;SDS011;6146;48.128;11.476;2023-07-13T09:57:23;2.83;;;2.10;;
12165;SDS011;6146;48.128;11.476;2023-07-13T09:59:51;3.60;;;2.20;;
12165;SDS011;6146;48.128;11.476;2023-07-13T10:02:35;5.07;;;2.83;;
12165;SDS011;6146;48.128;11.476;2023-07-13T10:05:03;1.60;;;1.50;;
12165;SDS011;6146;48.128;11.476;2023-07-13T10:07:31;3.60;;;2.73;;
12165;SDS011;6146;48.128;11.476;2023-07-13T10:10:02;3.50;;;2.70;;
12165;SDS011;6146;48.128;11.476;2023-07-13T10:12:29;4.67;;;3.10;;
12165;SDS011;6146;48.128;11.476;2023-07-13T10:15:00;2.60;;;1.87;;
12165;SDS011;6146;48.128;11.476;2023-07-13T10:17:27;4.07;;;2.03;;
12165;SDS011;6146;48.128;11.476;2023-07-13T10:19:55;2.40;;;2.07;;
12165;SDS011;6146;48.128;11.476;2023-07-13T10:22:29;6.13;;;2.07;;
12165;SDS011;6146;48.128;11.476;2023-07-13T10:25:03;3.93;;;1.77;;
12165;SDS011;6146;48.128;11.476;2023-07-13T10:27:40;2.72;;;2.00;;
12165;SDS011;6146;48.128;11.476;2023-07-13T10:32:34;2.38;;;1.80;;
12165;SDS011;6146;48.128;11.476;2023-07-13T10:35:00;2.78;;;1.73;;
12165;SDS011;6146;48.128;11.476;2023-07-13T10:37:29;1.77;;;1.40;;
12165;SDS011;6146;48.128;11.476;2023-07-13T10:40:01;1.92;;;1.35;;
12165;SDS011;6146;48.128;11.476;2023-07-13T10:42:32;2.50;;;1.35;;
12165;SDS011;6146;48.128;11.476;2023-07-13T10:45:01;1.75;;;1.50;;
12165;SDS011;6146;48.128;11.476;2023-07-13T10:47:36;1.80;;;1.50;;
12165;SDS011;6146;48.128;11.476;2023-07-13T10:50:04;4.25;;;1.80;;
12165;SDS011;6146;48.128;11.476;2023-07-13T10:52:47;4.07;;;1.85;;
12165;SDS011;6146;48.128;11.476;2023-07-13T10:57:59;3.50;;;2.38;;
12165;SDS011;6146;48.128;11.476;2023-07-13T11:00:26;2.45;;;2.10;;
12165;SDS011;6146;48.128;11.476;2023-07-13T11:02:56;4.32;;;2.22;;
12165;SDS011;6146;48.128;11.476;2023-07-13T11:07:53;2.03;;;1.52;;
12165;SDS011;6146;48.128;11.476;2023-07-13T11:10:47;2.70;;;1.65;;
12165;SDS011;6146;48.128;11.476;2023-07-13T11:13:35;3.70;;;1.77;;
12165;SDS011;6146;48.128;11.476;2023-07-13T11:18:53;3.55;;;1.50;;
12165;SDS011;6146;48.128;11.476;2023-07-13T11:24:47;2.42;;;1.55;;
12165;SDS011;6146;48.128;11.476;2023-07-13T11:27:21;2.50;;;1.48;;
12165;SDS011;6146;48.128;11.476;2023-07-13T11:29:47;3.50;;;1.88;;
12165;SDS011;6146;48.128;11.476;2023-07-13T11:32:29;1.90;;;1.55;;
12165;SDS011;6146;48.128;11.476;2023-07-13T11:34:56;2.45;;;1.40;;
12165;SDS011;6146;48.128;11.476;2023-07-13T11:37:22;2.95;;;1.58;;
12165;SDS011;6146;48.128;11.476;2023-07-13T11:39:49;2.13;;;1.60;;
12165;SDS011;6146;48.128;11.476;2023-07-13T11:42:17;4.03;;;1.42;;
12165;SDS011;6146;48.128;11.476;2023-07-13T11:44:46;1.90;;;1.27;;
12165;SDS011;6146;48.128;11.476;2023-07-13T11:47:17;2.15;;;1.40;;
12165;SDS011;6146;48.128;11.476;2023-07-13T11:49:51;2.35;;;1.50;;
12165;SDS011;6146;48.128;11.476;2023-07-13T11:52:32;4.35;;;1.90;;
12165;SDS011;6146;48.128;11.476;2023-07-13T11:55:01;3.65;;;1.42;;
12165;SDS011;6146;48.128;11.476;2023-07-13T11:57:35;2.22;;;1.48;;
12165;SDS011;6146;48.128;11.476;2023-07-13T12:00:11;2.38;;;1.52;;
12165;SDS011;6146;48.128;11.476;2023-07-13T12:02:44;4.07;;;1.60;;
12165;SDS011;6146;48.128;11.476;2023-07-13T12:05:13;3.28;;;1.60;;
12165;SDS011;6146;48.128;11.476;2023-07-13T12:07:42;1.80;;;1.60;;
12165;SDS011;6146;48.128;11.476;2023-07-13T12:12:37;2.60;;;1.70;;
12165;SDS011;6146;48.128;11.476;2023-07-13T12:15:06;2.55;;;2.03;;
12165;SDS011;6146;48.128;11.476;2023-07-13T12:17:33;3.55;;;2.05;;
12165;SDS011;6146;48.128;11.476;2023-07-13T12:20:03;2.43;;;2.00;;
12165;SDS011;6146;48.128;11.476;2023-07-13T12:22:44;2.90;;;1.90;;
12165;SDS011;6146;48.128;11.476;2023-07-13T12:25:12;2.00;;;1.58;;
12165;SDS011;6146;48.128;11.476;2023-07-13T12:27:38;3.08;;;1.67;;
12165;SDS011;6146;48.128;11.476;2023-07-13T12:30:05;3.10;;;1.90;;
12165;SDS011;6146;48.128;11.476;2023-07-13T12:33:07;3.08;;;1.60;;
12165;SDS011;6146;48.128;11.476;2023-07-13T12:35:40;3.13;;;1.80;;
12165;SDS011;6146;48.128;11.476;2023-07-13T12:38:13;2.23;;;2.00;;
12165;SDS011;6146;48.128;11.476;2023-07-13T12:40:39;2.10;;;1.53;;
12165;SDS011;6146;48.128;11.476;2023-07-13T12:43:09;2.13;;;1.47;;
12165;SDS011;6146;48.128;11.476;2023-07-13T12:45:37;1.80;;;1.70;;
12165;SDS011;6146;48.128;11.476;2023-07-13T12:48:04;1.57;;;1.47;;
12165;SDS011;6146;48.128;11.476;2023-07-13T12:50:39;2.90;;;1.57;;
12165;SDS011;6146;48.128;11.476;2023-07-13T12:53:14;4.38;;;1.90;;
12165;SDS011;6146;48.128;11.476;2023-07-13T12:55:48;3.70;;;1.70;;
12165;SDS011;6146;48.128;11.476;2023-07-13T12:58:20;2.67;;;1.83;;
12165;SDS011;6146;48.128;11.476;2023-07-13T13:00:51;2.27;;;1.70;;
12165;SDS011;6146;48.128;11.476;2023-07-13T13:03:30;1.70;;;1.60;;
12165;SDS011;6146;48.128;11.476;2023-07-13T13:05:59;2.30;;;1.47;;
12165;SDS011;6146;48.128;11.476;2023-07-13T13:08:28;2.40;;;1.80;;
12165;SDS011;6146;48.128;11.476;2023-07-13T13:10:54;3.27;;;1.70;;
12165;SDS011;6146;48.128;11.476;2023-07-13T13:13:20;1.70;;;1.60;;
12165;SDS011;6146;48.128;11.476;2023-07-13T13:15:45;3.00;;;1.70;;
12165;SDS011;6146;48.128;11.476;2023-07-13T13:18:17;2.33;;;1.67;;
12165;SDS011;6146;48.128;11.476;2023-07-13T13:20:45;2.33;;;1.73;;
12165;SDS011;6146;48.128;11.476;2023-07-13T13:23:15;1.80;;;1.70;;
12165;SDS011;6146;48.128;11.476;2023-07-13T13:25:42;3.83;;;1.63;;
12165;SDS011;6146;48.128;11.476;2023-07-13T13:28:14;1.90;;;1.33;;
12165;SDS011;6146;48.128;11.476;2023-07-13T13:30:45;2.57;;;1.50;;
12165;SDS011;6146;48.128;11.476;2023-07-13T13:33:13;2.60;;;1.87;;
12165;SDS011;6146;48.128;11.476;2023-07-13T13:35:41;6.63;;;1.73;;
12165;SDS011;6146;48.128;11.476;2023-07-13T13:38:10;2.40;;;1.60;;
12165;SDS011;6146;48.128;11.476;2023-07-13T13:40:41;3.17;;;1.70;;
12165;SDS011;6146;48.128;11.476;2023-07-13T13:43:18;1.90;;;1.53;;
12165;SDS011;6146;48.128;11.476;2023-07-13T13:45:53;2.93;;;1.90;;
12165;SDS011;6146;48.128;11.476;2023-07-13T13:48:34;2.00;;;1.57;;
12165;SDS011;6146;48.128;11.476;2023-07-13T13:51:03;3.97;;;1.77;;
12165;SDS011;6146;48.128;11.476;2023-07-13T13:53:38;3.67;;;1.50;;
12165;SDS011;6146;48.128;11.476;2023-07-13T13:56:04;2.10;;;1.50;;
12165;SDS011;6146;48.128;11.476;2023-07-13T13:58:30;2.50;;;1.60;;
12165;SDS011;6146;48.128;11.476;2023-07-13T14:00:55;3.67;;;1.80;;
12165;SDS011;6146;48.128;11.476;2023-07-13T14:03:23;2.37;;;1.70;;
12165;SDS011;6146;48.128;11.476;2023-07-13T14:05:49;2.73;;;1.70;;
12165;SDS011;6146;48.128;11.476;2023-07-13T14:08:16;1.63;;;1.50;;
12165;SDS011;6146;48.128;11.476;2023-07-13T14:10:44;1.87;;;1.67;;
12165;SDS011;6146;48.128;11.476;2023-07-13T14:13:16;3.40;;;1.70;;
12165;SDS011;6146;48.128;11.476;2023-07-13T14:15:45;4.40;;;1.70;;
12165;SDS011;6146;48.128;11.476;2023-07-13T14:18:11;1.73;;;1.60;;
12165;SDS011;6146;48.128;11.476;2023-07-13T14:20:37;2.30;;;1.67;;
12165;SDS011;6146;48.128;11.476;2023-07-13T14:23:02;2.50;;;1.70;;
12165;SDS011;6146;48.128;11.476;2023-07-13T14:25:28;3.43;;;1.90;;
12165;SDS011;6146;48.128;11.476;2023-07-13T14:27:55;2.97;;;1.63;;
12165;SDS011;6146;48.128;11.476;2023-07-13T14:30:24;1.80;;;1.70;;
12165;SDS011;6146;48.128;11.476;2023-07-13T14:32:50;1.93;;;1.67;;
12165;SDS011;6146;48.128;11.476;2023-07-13T14:35:17;2.23;;;1.60;;
12165;SDS011;6146;48.128;11.476;2023-07-13T14:37:45;2.67;;;1.60;;
12165;SDS011;6146;48.128;11.476;2023-07-13T14:42:56;2.00;;;1.60;;
12165;SDS011;6146;48.128;11.476;2023-07-13T14:45:22;3.20;;;1.57;;
12165;SDS011;6146;48.128;11.476;2023-07-13T14:47:49;2.27;;;2.00;;
12165;SDS011;6146;48.128;11.476;2023-07-13T14:50:16;2.10;;;1.70;;
12165;SDS011;6146;48.128;11.476;2023-07-13T14:52:46;2.97;;;1.73;;
12165;SDS011;6146;48.128;11.476;2023-07-13T14:55:13;2.60;;;1.60;;
12165;SDS011;6146;48.128;11.476;2023-07-13T14:57:40;3.63;;;1.60;;
12165;SDS011;6146;48.128;11.476;2023-07-13T15:00:24;3.27;;;1.80;;
12165;SDS011;6146;48.128;11.476;2023-07-13T15:02:50;2.87;;;1.93;;
12165;SDS011;6146;48.128;11.476;2023-07-13T15:05:20;3.30;;;1.63;;
12165;SDS011;6146;48.128;11.476;2023-07-13T15:07:51;1.97;;;1.77;;
12165;SDS011;6146;48.128;11.476;2023-07-13T15:10:21;1.80;;;1.50;;
12165;SDS011;6146;48.128;11.476;2023-07-13T15:12:50;3.23;;;2.53;;
12165;SDS011;6146;48.128;11.476;2023-07-13T15:15:18;2.03;;;1.80;;
12165;SDS011;6146;48.128;11.476;2023-07-13T15:17:44;3.70;;;2.17;;
12165;SDS011;6146;48.128;11.476;2023-07-13T15:20:16;3.70;;;2.83;;
12165;SDS011;6146;48.128;11.476;2023-07-13T15:22:43;4.57;;;1.87;;
12165;SDS011;6146;48.128;11.476;2023-07-13T15:25:14;5.80;;;3.07;;
12165;SDS011;6146;48.128;11.476;2023-07-13T15:27:42;3.43;;;1.87;;
12165;SDS011;6146;48.128;11.476;2023-07-13T15:30:08;2.30;;;1.97;;
12165;SDS011;6146;48.128;11.476;2023-07-13T15:32:34;2.80;;;2.50;;
12165;SDS011;6146;48.128;11.476;2023-07-13T15:34:59;3.00;;;2.70;;
12165;SDS011;6146;48.128;11.476;2023-07-13T15:37:25;3.27;;;2.97;;
12165;SDS011;6146;48.128;11.476;2023-07-13T15:39:50;4.47;;;2.90;;